Latest Coastal Weather Observations for Karratha

IDW60701

Issued at 4:55 pm WST Monday 21 April 2014 (issued every 10 minutes, with the page automatically refreshed every 10 minutes)

About coastal observations | Map of coastal stations | Coastal observations for WA | Marine services | Other Formats
Station Details ID: 004083 Name: KARRATHA AERO Lat: -20.71 Lon: 116.77 Height: 5.3 m
Data from the previous 72 hours. | See also: Recent months at Karratha
Date/Time
WST
Temp

°C
Wind Pressure Rain
since 9am
mm
Weather Cloud Vis
km
Sea
Height
m
Swell
Dir
 
Speed
knots
Gust
knots
hPa Trend Height
m
Period
s
Dir
21/04:30pm 32.1 NNW 10 13 1010.4 - 0.0 - - 10 - - - -
21/04:00pm 32.7 NNW 9 12 1010.3 - 0.0 - - 10 - - - -
21/03:30pm 32.8 NNW 10 12 1010.2 - 0.0 - - 10 - - - -
21/03:00pm 34.0 NNW 9 12 1010.1 - 0.0 - - 10 - - - -
21/02:30pm 34.7 NNW 7 10 1010.2 - 0.0 - - 10 - - - -
21/02:00pm 34.5 N 7 9 1010.3 - 0.0 - - 10 - - - -
21/01:30pm 34.8 N 6 10 1010.4 - 0.0 - - 10 - - - -
21/01:00pm 35.3 NNW 7 10 1010.4 - 0.0 - - 10 - - - -
21/12:30pm 35.1 NW 6 8 1010.6 - 0.0 - - 10 - - - -
21/12:00pm 34.5 NNW 6 8 1010.9 - 0.0 - - 10 - - - -
21/11:30am 34.6 NW 7 9 1011.3 - 0.0 - - 10 - - - -
21/11:00am 33.8 NW 6 8 1011.6 - 0.0 - - 10 - - - -
21/10:30am 32.2 NW 5 7 1012.0 - 0.0 - - 10 - - - -
21/10:00am 30.9 NNW 5 7 1012.2 - 0.0 - - 10 - - - -
21/09:30am 30.1 WNW 3 6 1012.1 - 0.0 - - 10 - - - -
21/09:00am 29.5 W 4 5 1012.1 - 0.0 - - 10 - - - -
21/08:30am 28.2 WSW 4 6 1012.0 - 0.0 - - 10 - - - -
21/08:00am 27.0 CALM 0 0 1012.1 - 0.0 - - 10 - - - -
21/07:30am 24.9 S 2 4 1011.9 - 0.0 - - 10 - - - -
21/07:00am 22.9 SW 4 5 1011.7 - 0.0 - - 10 - - - -
21/06:30am 22.9 WSW 4 4 1011.4 - 0.0 - - 10 - - - -
21/06:00am 23.3 CALM 0 0 1011.2 - 0.0 - - 10 - - - -
21/05:30am 23.5 WSW 3 4 1011.0 - 0.0 - - 10 - - - -
21/05:00am 23.9 WSW 4 5 1010.8 - 0.0 - - 10 - - - -
21/04:30am 23.8 WSW 4 5 1010.9 - 0.0 - - 10 - - - -
21/04:00am 24.1 WSW 5 6 1010.7 - 0.0 - - 10 - - - -
21/03:30am 24.2 WSW 6 7 1010.5 - 0.0 - - 10 - - - -
21/03:00am 24.1 WSW 6 6 1010.6 - 0.0 - - 10 - - - -
21/02:30am 24.4 SW 6 7 1010.6 - 0.0 - - 10 - - - -
21/02:00am 24.4 SW 6 7 1010.8 - 0.0 - - 10 - - - -
21/01:30am 25.5 WSW 6 7 1010.9 - 0.0 - - 10 - - - -
21/01:00am 26.0 WSW 7 9 1011.0 - 0.0 - - 10 - - - -
21/12:30am 26.2 WSW 8 11 1010.9 - 0.0 - - 10 - - - -
21/12:00am 25.9 WSW 7 8 1011.0 - 0.0 - - 10 - - - -
 
Date/Time
WST
Temp

°C
Wind Pressure Rain
since 9am
mm
Weather Cloud Vis
km
Sea
Height
m
Swell
Dir
 
Speed
knots
Gust
knots
hPa Trend Height
m
Period
s
Dir
20/11:30pm 25.8 WSW 6 7 1011.0 - 0.0 - - 10 - - - -
20/11:00pm 28.2 W 9 11 1010.9 - 0.0 - - 10 - - - -
20/10:30pm 28.0 WNW 7 9 1011.0 - 0.0 - - 10 - - - -
20/10:00pm 28.1 NW 7 8 1011.0 - 0.0 - - 10 - - - -
20/09:30pm 28.4 NW 7 9 1011.0 - 0.0 - - 10 - - - -
20/09:00pm 28.6 NW 8 11 1010.9 - 0.0 - - 10 - - - -
20/08:30pm 28.9 NW 9 11 1010.8 - 0.0 - - 10 - - - -
20/08:00pm 29.2 NW 8 11 1010.7 - 0.0 - - 10 - - - -
20/07:30pm 29.6 NW 8 10 1010.4 - 0.0 - - 10 - - - -
20/07:00pm 30.3 NW 8 10 1010.2 - 0.0 - - 10 - - - -
20/06:30pm 31.0 WNW 8 11 1009.9 - 0.0 - - 10 - - - -
20/06:00pm 31.8 WNW 9 11 1009.7 - 0.0 - - 10 - - - -
20/05:30pm 33.1 WNW 9 11 1009.4 - 0.0 - - 10 - - - -
20/05:00pm 34.3 WNW 9 12 1009.2 - 0.0 - - 10 - - - -
20/04:30pm 34.5 WNW 10 13 1009.2 - 0.0 - - 10 - - - -
20/04:00pm 35.0 WNW 9 11 1009.1 - 0.0 - - 10 - - - -
20/03:30pm 35.5 WNW 9 11 1009.0 - 0.0 - - 10 - - - -
20/03:00pm 35.8 NW 8 11 1009.0 - 0.0 - - 10 - - - -
20/02:30pm 35.2 W 11 15 1009.0 - 0.0 - - 10 - - - -
20/02:00pm 35.7 W 12 15 1009.1 - 0.0 - - 10 - - - -
20/01:30pm 35.8 W 11 14 1009.4 - 0.0 - - 10 - - - -
20/01:00pm 35.7 W 11 14 1009.7 - 0.0 - - 10 - - - -
20/12:30pm 35.7 W 11 13 1010.0 - 0.0 - - 10 - - - -
20/12:00pm 35.7 W 9 12 1010.5 - 0.0 - - 10 - - - -
20/11:30am 35.3 WNW 6 9 1011.0 - 0.0 - - 10 - - - -
20/11:00am 35.2 WNW 8 10 1011.4 - 0.0 - - 10 - - - -
20/10:30am 35.0 W 6 10 1011.7 - 0.0 - - 10 - - - -
20/10:00am 34.1 WNW 5 7 1012.0 - 0.0 - - 10 - - - -
20/09:30am 33.4 S 6 8 1012.1 - 0.0 - - 10 - - - -
20/09:00am 32.0 SE 4 6 1012.1 - 0.0 - - 10 - - - -
20/08:30am 29.9 S 4 5 1012.2 - 0.0 - - 10 - - - -
20/08:00am 27.5 SSE 3 4 1012.2 - 0.0 - - 10 - - - -
20/07:30am 25.8 CALM 0 0 1012.2 - 0.0 - - 10 - - - -
20/07:00am 22.7 SE 3 5 1011.9 - 0.0 - - 10 - - - -
20/06:30am 21.6 CALM 0 0 1011.6 - 0.0 - - 10 - - - -
20/06:00am 21.8 S 1 5 1011.4 - 0.0 - - 10 - - - -
20/05:30am 22.2 S 3 4 1011.3 - 0.0 - - 10 - - - -
20/05:00am 22.7 S 3 4 1011.1 - 0.0 - - 10 - - - -
20/04:30am 22.2 S 5 6 1011.0 - 0.0 - - 10 - - - -
20/04:00am 22.8 SSW 5 6 1011.0 - 0.0 - - 10 - - - -
20/03:30am 23.3 SW 3 4 1010.9 - 0.0 - - 10 - - - -
20/03:00am 24.9 SW 4 6 1011.0 - 0.0 - - 10 - - - -
20/02:30am 24.6 WSW 3 4 1011.1 - 0.0 - - 10 - - - -
20/02:00am 23.7 SW 4 4 1011.4 - 0.0 - - 10 - - - -
20/01:30am 23.1 CALM 0 2 1011.4 - 0.0 - - 10 - - - -
20/01:00am 23.2 S 5 6 1011.5 - 0.0 - - 10 - - - -
20/12:30am 23.7 S 1 5 1011.6 - 0.0 - - 10 - - - -
20/12:00am 23.2 S 5 6 1011.6 - 0.0 - - 10 - - - -
 
Date/Time
WST
Temp

°C
Wind Pressure Rain
since 9am
mm
Weather Cloud Vis
km
Sea
Height
m
Swell
Dir
 
Speed
knots
Gust
knots
hPa Trend Height
m
Period
s
Dir
19/11:30pm 24.5 SW 5 6 1011.8 - 0.0 - - 10 - - - -
19/11:00pm 24.4 SW 4 5 1011.8 - 0.0 - - 10 - - - -
19/10:30pm 25.3 WSW 4 5 1012.0 - 0.0 - - 10 - - - -
19/10:00pm 25.5 WSW 5 6 1012.1 - 0.0 - - 10 - - - -
19/09:30pm 25.7 SW 7 8 1012.3 - 0.0 - - 10 - - - -
19/09:00pm 25.8 SW 4 6 1012.3 - 0.0 - - 10 - - - -
19/08:30pm 27.8 WSW 6 7 1012.1 - 0.0 - - 10 - - - -
19/08:00pm 28.9 W 7 8 1011.8 - 0.0 - - 10 - - - -
19/07:30pm 29.1 WNW 6 7 1011.3 - 0.0 - - 10 - - - -
19/07:00pm 29.3 WNW 8 9 1010.9 - 0.0 - - 10 - - - -
19/06:30pm 30.1 WNW 8 11 1010.8 - 0.0 - - 10 - - - -
19/06:00pm 30.9 NW 7 10 1010.6 - 0.0 - - 10 - - - -
19/05:30pm 31.8 NNW 8 11 1010.4 - 0.0 - - 10 - - - -
19/05:00pm 33.0 NNW 10 14 1010.3 - 0.0 - - 10 - - - -
19/04:30pm 33.5 NNW 10 13 1010.2 - 0.0 - - 10 - - - -
19/04:00pm 34.1 N 11 14 1010.1 - 0.0 - - 10 - - - -
19/03:30pm 35.0 NNE 11 13 1010.1 - 0.0 - - 10 - - - -
19/03:00pm 34.8 NNE 11 14 1010.1 - 0.0 - - 10 - - - -
19/02:30pm 34.7 NNE 11 13 1010.3 - 0.0 - - 10 - - - -
19/02:00pm 35.4 NNE 10 13 1010.6 - 0.0 - - 10 - - - -
19/01:30pm 35.2 NNE 10 12 1010.8 - 0.0 - - 10 - - - -
19/01:00pm 36.0 NNE 9 11 1011.3 - 0.0 - - 10 - - - -
19/12:30pm 36.3 NE 7 10 1011.8 - 0.0 - - 10 - - - -
19/12:00pm 35.7 NNE 7 10 1012.4 - 0.0 - - 10 - - - -
19/11:30am 35.9 NE 7 9 1012.8 - 0.0 - - 10 - - - -
19/11:00am 35.6 ENE 5 10 1013.1 - 0.0 - - 10 - - - -
19/10:30am 34.6 SE 5 11 1013.5 - 0.0 - - 10 - - - -
19/10:00am 34.3 S 8 11 1013.9 - 0.0 - - 10 - - - -
19/09:30am 32.9 S 10 12 1014.2 - 0.0 - - 10 - - - -
19/09:00am 31.5 SSE 9 11 1014.3 - 0.0 - - 10 - - - -
19/08:30am 29.9 S 7 9 1014.4 - 0.0 - - 10 - - - -
19/08:00am 27.2 SE 5 8 1014.1 - 0.0 - - 10 - - - -
19/07:30am 24.1 SSE 3 5 1014.0 - 0.0 - - 10 - - - -
19/07:00am 20.9 S 5 7 1013.9 - 0.0 - - 10 - - - -
19/06:30am 19.8 S 7 8 1013.7 - 0.0 - - 10 - - - -
19/06:00am 20.8 S 4 5 1013.6 - 0.0 - - 10 - - - -
19/05:30am 21.3 CALM 0 0 1013.5 - 0.0 - - 10 - - - -
19/05:00am 21.2 SSW 1 3 1013.3 - 0.0 - - 10 - - - -
19/04:30am 20.6 SSW 5 6 1013.4 - 0.0 - - 10 - - - -
19/04:00am 20.6 S 6 8 1013.4 - 0.0 - - 10 - - - -
19/03:30am 20.3 S 7 8 1013.5 - 0.0 - - 10 - - - -
19/03:00am 20.6 S 7 8 1013.5 - 0.0 - - 10 - - - -
19/02:30am 21.2 SSE 4 6 1013.7 - 0.0 - - 10 - - - -
19/02:00am 21.9 SSW 4 5 1013.7 - 0.0 - - 10 - - - -
19/01:30am 21.8 S 6 7 1013.7 - 0.0 - - 10 - - - -
19/01:00am 21.8 S 7 8 1013.9 - 0.0 - - 10 - - - -
19/12:30am 21.8 S 5 6 1014.1 - 0.0 - - 10 - - - -
19/12:00am 22.6 CALM 0 5 1014.4 - 0.0 - - 10 - - - -
 
Date/Time
WST
Temp

°C
Wind Pressure Rain
since 9am
mm
Weather Cloud Vis
km
Sea
Height
m
Swell
Dir
 
Speed
knots
Gust
knots
hPa Trend Height
m
Period
s
Dir
18/11:30pm 22.5 S 3 5 1014.5 - 0.0 - - 10 - - - -
18/11:00pm 23.0 S 5 6 1014.9 - 0.0 - - 10 - - - -
18/10:30pm 23.2 S 6 7 1015.0 - 0.0 - - 10 - - - -
18/10:00pm 23.2 SSE 6 7 1015.0 - 0.0 - - 10 - - - -
18/09:30pm 23.9 S 8 9 1014.9 - 0.0 - - 10 - - - -
18/09:00pm 25.0 SSW 4 4 1014.7 - 0.0 - - 10 - - - -
18/08:30pm 27.1 CALM 0 0 1014.4 - 0.0 - - 10 - - - -
18/08:00pm 27.9 N 4 5 1014.1 - 0.0 - - 10 - - - -
18/07:30pm 27.1 NNE 5 6 1013.7 - 0.0 - - 10 - - - -
18/07:00pm 28.3 N 4 6 1013.3 - 0.0 - - 10 - - - -
18/06:30pm 28.8 N 5 6 1013.1 - 0.0 - - 10 - - - -
18/06:00pm 29.2 NNE 6 8 1012.8 - 0.0 - - 10 - - - -
18/05:30pm 30.3 NNE 9 12 1012.5 - 0.0 - - 10 - - - -
18/05:00pm 31.5 NNE 10 13 1012.2 - 0.0 - - 10 - - - -

Other Formats:

Comma delimited format used in spreadsheet applications
http://www.bom.gov.au/fwo/IDW60701/IDW60701.95307.axf

JavaScript Object Notation format (JSON) in row-major order
http://www.bom.gov.au/fwo/IDW60701/IDW60701.95307.json